There are multiple Weather-warnings   Click here for more information


Meteo18 Weather Cam more information Meteo18 Weather Cam


warning for Thunderstorms more information blitzortung!


Rain radar more information rain snow radar


Visit our other weather sites:

Template documentation
and downloads

And another site



Weather Underground History page Text

Daily Summary for September 23, 2016 Units:  Metric    English   Both
« Previous Day
Next Day »
Daily Weekly Monthly Yearly Custom
  High: Low: Average:
Temperature: 24.7 °C 9.9 °C 17.2 °C
Dew Point: 12.5 °C 8.8 °C 9.9 °C
Humidity: 93 % 37 % 66 %
Wind Speed: 11.3 km/h 0.0 km/h 1.8 km/h
Wind Gust: 19.3 km/h - -
Wind:- - SE
Pressure: 1024.9 hPa 1021.6 hPa -
Precipitation: 0.0 mm    
Historical Graphs
 
 
Tabular Data for September 23, 2016
Time Temperature Dew Point Pressure Wind Wind Speed Wind Gust Humidity Rainfall Rate (Hourly)
00:07 13.6 °C 10.0 °C 1021.6 hPa Calm   1.6 km/h 79 % 0.0 mm
00:12 13.5 °C 10.1 °C 1021.6 hPa Calm   1.6 km/h 80 % 0.0 mm
00:17 13.4 °C 10.0 °C 1021.6 hPa Calm   1.6 km/h 80 % 0.0 mm
00:27 13.4 °C 10.0 °C 1021.6 hPa Calm   1.6 km/h 80 % 0.0 mm
00:32 13.3 °C 10.1 °C 1021.6 hPa Calm   1.6 km/h 81 % 0.0 mm
00:42 13.2 °C 10.0 °C 1021.6 hPa Calm   1.6 km/h 81 % 0.0 mm
00:47 13.2 °C 10.0 °C 1021.6 hPa Calm   1.6 km/h 81 % 0.0 mm
00:52 13.2 °C 10.2 °C 1021.6 hPa Calm   1.6 km/h 82 % 0.0 mm
00:57 13.1 °C 10.1 °C 1021.6 hPa Calm   1.6 km/h 82 % 0.0 mm
01:02 12.9 °C 10.1 °C 1021.6 hPa Calm   1.6 km/h 83 % 0.0 mm
01:07 12.9 °C 10.1 °C 1021.6 hPa NNW 1.6 km/h 3.2 km/h 83 % 0.0 mm
01:12 12.9 °C 9.9 °C 1021.6 hPa Calm   3.2 km/h 82 % 0.0 mm
01:17 12.6 °C 9.8 °C 1021.6 hPa Calm   3.2 km/h 83 % 0.0 mm
01:22 12.4 °C 9.8 °C 1021.6 hPa WNW 1.6 km/h 3.2 km/h 84 % 0.0 mm
01:32 12.6 °C 10.0 °C 1021.6 hPa Calm   1.6 km/h 84 % 0.0 mm
01:37 12.8 °C 10.0 °C 1021.6 hPa North 1.6 km/h 1.6 km/h 83 % 0.0 mm
01:42 12.9 °C 10.1 °C 1021.6 hPa NNE 3.2 km/h 3.2 km/h 83 % 0.0 mm
01:47 13.0 °C 10.0 °C 1021.6 hPa North 1.6 km/h 3.2 km/h 82 % 0.0 mm
01:57 13.0 °C 10.0 °C 1021.6 hPa Calm   3.2 km/h 82 % 0.0 mm
02:02 12.8 °C 9.8 °C 1021.6 hPa Calm   3.2 km/h 82 % 0.0 mm
02:07 12.6 °C 9.8 °C 1021.6 hPa WNW 1.6 km/h 1.6 km/h 83 % 0.0 mm
02:12 12.2 °C 9.4 °C 1021.9 hPa WNW 1.6 km/h 1.6 km/h 83 % 0.0 mm
02:17 12.2 °C 9.8 °C 1021.9 hPa WNW 1.6 km/h 1.6 km/h 85 % 0.0 mm
02:22 12.2 °C 9.6 °C 1021.9 hPa WNW 1.6 km/h 1.6 km/h 84 % 0.0 mm
02:27 12.2 °C 9.6 °C 1021.9 hPa WNW 1.6 km/h 1.6 km/h 84 % 0.0 mm
02:32 12.3 °C 9.7 °C 1021.9 hPa Calm   1.6 km/h 84 % 0.0 mm
02:37 12.3 °C 9.9 °C 1021.9 hPa Calm   1.6 km/h 85 % 0.0 mm
02:42 12.3 °C 9.9 °C 1021.9 hPa Calm   1.6 km/h 85 % 0.0 mm
02:47 12.4 °C 9.9 °C 1021.9 hPa Calm   1.6 km/h 85 % 0.0 mm
02:52 12.5 °C 9.9 °C 1021.9 hPa Calm   1.6 km/h 84 % 0.0 mm
02:57 12.5 °C 9.7 °C 1021.9 hPa Calm   1.6 km/h 83 % 0.0 mm
03:02 12.2 °C 9.6 °C 1021.9 hPa Calm   1.6 km/h 84 % 0.0 mm
03:07 12.0 °C 9.6 °C 1021.9 hPa Calm     85 % 0.0 mm
03:12 11.9 °C 9.6 °C 1021.9 hPa Calm     86 % 0.0 mm
03:22 11.8 °C 9.5 °C 1022.2 hPa Calm     86 % 0.0 mm
03:27 11.7 °C 9.4 °C 1021.9 hPa Calm   1.6 km/h 86 % 0.0 mm
03:32 11.7 °C 9.4 °C 1022.2 hPa Calm   1.6 km/h 86 % 0.0 mm
03:37 11.6 °C 9.3 °C 1022.2 hPa Calm     86 % 0.0 mm
03:47 11.4 °C 9.3 °C 1022.2 hPa Calm     87 % 0.0 mm
03:52 11.4 °C 9.3 °C 1022.2 hPa Calm     87 % 0.0 mm
03:57 11.3 °C 9.2 °C 1022.2 hPa Calm     87 % 0.0 mm
04:02 11.2 °C 9.1 °C 1022.2 hPa Calm     87 % 0.0 mm
04:07 11.1 °C 9.2 °C 1022.2 hPa Calm     88 % 0.0 mm
04:12 11.0 °C 9.1 °C 1022.2 hPa Calm     88 % 0.0 mm
04:17 10.9 °C 9.2 °C 1022.2 hPa Calm     89 % 0.0 mm
04:22 11.0 °C 9.3 °C 1022.2 hPa Calm     89 % 0.0 mm
04:27 10.9 °C 9.2 °C 1022.2 hPa Calm     89 % 0.0 mm
04:32 10.9 °C 9.2 °C 1022.2 hPa Calm     89 % 0.0 mm
04:37 10.9 °C 9.3 °C 1022.2 hPa Calm     90 % 0.0 mm
04:42 10.9 °C 9.3 °C 1022.2 hPa Calm     90 % 0.0 mm
04:47 11.1 °C 9.5 °C 1022.2 hPa Calm     90 % 0.0 mm
04:52 11.2 °C 9.6 °C 1022.2 hPa Calm     90 % 0.0 mm
05:02 11.2 °C 9.5 °C 1022.2 hPa Calm     89 % 0.0 mm
05:12 11.2 °C 9.6 °C 1022.2 hPa Calm     90 % 0.0 mm
05:17 11.3 °C 9.6 °C 1022.2 hPa Calm   1.6 km/h 89 % 0.0 mm
05:22 11.2 °C 9.5 °C 1022.2 hPa Calm   1.6 km/h 89 % 0.0 mm
05:32 11.1 °C 9.4 °C 1022.2 hPa Calm   1.6 km/h 89 % 0.0 mm
05:42 11.2 °C 9.6 °C 1022.6 hPa Calm     90 % 0.0 mm
05:47 11.2 °C 9.6 °C 1022.2 hPa Calm     90 % 0.0 mm
05:52 11.1 °C 9.4 °C 1022.6 hPa Calm     89 % 0.0 mm
06:02 10.7 °C 9.1 °C 1022.2 hPa Calm     90 % 0.0 mm
06:17 10.8 °C 9.6 °C 1022.6 hPa Calm     92 % 0.0 mm
06:22 10.8 °C 9.6 °C 1022.6 hPa Calm     92 % 0.0 mm
06:32 10.7 °C 9.3 °C 1022.6 hPa Calm     91 % 0.0 mm
06:52 10.4 °C 9.0 °C 1022.6 hPa Calm     91 % 0.0 mm
06:57 10.4 °C 9.2 °C 1022.6 hPa Calm     92 % 0.0 mm
07:02 10.4 °C 9.2 °C 1022.6 hPa Calm     92 % 0.0 mm
07:12 10.2 °C 9.0 °C 1022.9 hPa Calm     92 % 0.0 mm
07:22 10.2 °C 9.1 °C 1022.9 hPa Calm     93 % 0.0 mm
07:27 10.2 °C 9.1 °C 1022.9 hPa Calm     93 % 0.0 mm
07:32 10.2 °C 9.1 °C 1022.9 hPa Calm     93 % 0.0 mm
07:42 10.2 °C 9.0 °C 1023.2 hPa Calm     92 % 0.0 mm
07:52 10.0 °C 8.9 °C 1023.2 hPa Calm     93 % 0.0 mm
07:57 9.9 °C 8.8 °C 1023.2 hPa Calm     93 % 0.0 mm
08:02 9.9 °C 8.8 °C 1023.2 hPa Calm     93 % 0.0 mm
08:12 9.9 °C 8.8 °C 1023.6 hPa Calm     93 % 0.0 mm
08:17 9.9 °C 8.8 °C 1023.6 hPa Calm     93 % 0.0 mm
08:22 9.9 °C 8.8 °C 1023.6 hPa Calm     93 % 0.0 mm
08:27 10.1 °C 9.0 °C 1023.6 hPa Calm     93 % 0.0 mm
08:37 10.5 °C 9.4 °C 1023.6 hPa Calm     93 % 0.0 mm
08:42 10.8 °C 9.7 °C 1023.6 hPa Calm     93 % 0.0 mm
08:57 13.2 °C 11.4 °C 1023.9 hPa Calm     89 % 0.0 mm
09:17 13.5 °C 10.8 °C 1023.9 hPa Calm     84 % 0.0 mm
09:22 13.6 °C 11.1 °C 1023.9 hPa Calm     85 % 0.0 mm
09:32 14.6 °C 11.6 °C 1024.3 hPa Calm     82 % 0.0 mm
09:42 15.6 °C 11.8 °C 1024.3 hPa Calm     78 % 0.0 mm
09:52 15.2 °C 11.6 °C 1024.3 hPa SSW 1.6 km/h   79 % 0.0 mm
09:57 15.3 °C 11.5 °C 1024.3 hPa Calm   3.2 km/h 78 % 0.0 mm
10:02 15.4 °C 11.6 °C 1024.3 hPa Calm   3.2 km/h 78 % 0.0 mm
10:17 15.8 °C 12.0 °C 1024.3 hPa Calm   4.8 km/h 78 % 0.0 mm
10:22 16.1 °C 11.9 °C 1024.6 hPa SSW 1.6 km/h 4.8 km/h 76 % 0.0 mm
10:32 16.6 °C 12.1 °C 1024.6 hPa SSE 1.6 km/h 4.8 km/h 75 % 0.0 mm
10:42 17.3 °C 12.0 °C 1024.9 hPa Calm   3.2 km/h 71 % 0.0 mm
10:47 17.2 °C 11.9 °C 1024.9 hPa SSW 1.6 km/h 3.2 km/h 71 % 0.0 mm
10:52 17.3 °C 12.0 °C 1024.9 hPa Calm   3.2 km/h 71 % 0.0 mm
10:57 17.7 °C 11.9 °C 1024.9 hPa Calm   4.8 km/h 69 % 0.0 mm
11:02 17.8 °C 11.6 °C 1024.9 hPa Calm   4.8 km/h 67 % 0.0 mm
11:12 18.7 °C 12.2 °C 1024.9 hPa Calm   4.8 km/h 66 % 0.0 mm
11:17 18.8 °C 11.8 °C 1024.9 hPa SSE 1.6 km/h 4.8 km/h 64 % 0.0 mm
11:22 18.7 °C 11.8 °C 1024.9 hPa Calm   4.8 km/h 64 % 0.0 mm
11:27 19.0 °C 12.3 °C 1024.9 hPa Calm   6.4 km/h 65 % 0.0 mm
11:32 19.2 °C 11.7 °C 1024.9 hPa SSW 4.8 km/h 6.4 km/h 62 % 0.0 mm
11:37 19.2 °C 12.0 °C 1024.9 hPa South 3.2 km/h 8.0 km/h 63 % 0.0 mm
11:47 19.9 °C 12.2 °C 1024.9 hPa Calm   8.0 km/h 61 % 0.0 mm
11:52 20.1 °C 12.3 °C 1024.9 hPa SSW 1.6 km/h 8.0 km/h 61 % 0.0 mm
11:57 20.5 °C 12.0 °C 1024.9 hPa SSW 1.6 km/h 8.0 km/h 58 % 0.0 mm
12:02 20.7 °C 12.1 °C 1024.9 hPa SE 1.6 km/h 8.0 km/h 58 % 0.0 mm
12:07 21.1 °C 12.5 °C 1024.9 hPa SSW 1.6 km/h 8.0 km/h 58 % 0.0 mm
12:12 21.2 °C 12.3 °C 1024.9 hPa SW 1.6 km/h 8.0 km/h 57 % 0.0 mm
12:17 21.3 °C 11.6 °C 1024.9 hPa ENE 3.2 km/h 8.0 km/h 54 % 0.0 mm
12:22 21.3 °C 11.9 °C 1024.9 hPa Calm   8.0 km/h 55 % 0.0 mm
12:27 21.4 °C 11.4 °C 1024.9 hPa South 1.6 km/h 8.0 km/h 53 % 0.0 mm
12:32 21.6 °C 11.6 °C 1024.9 hPa Calm   8.0 km/h 53 % 0.0 mm
12:37 21.6 °C 11.3 °C 1024.9 hPa Calm   8.0 km/h 52 % 0.0 mm
12:42 21.7 °C 12.0 °C 1024.9 hPa ESE 3.2 km/h 6.4 km/h 54 % 0.0 mm
12:47 21.9 °C 11.6 °C 1024.9 hPa Calm   9.7 km/h 52 % 0.0 mm
12:52 22.2 °C 11.6 °C 1024.9 hPa ENE 3.2 km/h 9.7 km/h 51 % 0.0 mm
12:57 21.9 °C 11.6 °C 1024.9 hPa SE 9.7 km/h 9.7 km/h 52 % 0.0 mm
13:02 22.1 °C 10.9 °C 1024.9 hPa SSW 3.2 km/h 9.7 km/h 49 % 0.0 mm
13:12 22.3 °C 11.1 °C 1024.9 hPa SW 4.8 km/h 9.7 km/h 49 % 0.0 mm
13:17 22.7 °C 11.1 °C 1024.9 hPa SSE 4.8 km/h 8.0 km/h 48 % 0.0 mm
13:22 22.6 °C 10.7 °C 1024.9 hPa Calm   8.0 km/h 47 % 0.0 mm
13:32 22.9 °C 10.3 °C 1024.9 hPa SSE 6.4 km/h 8.0 km/h 45 % 0.0 mm
13:37 22.7 °C 10.5 °C 1024.9 hPa South 1.6 km/h 9.7 km/h 46 % 0.0 mm
13:42 22.9 °C 10.3 °C 1024.9 hPa ESE 3.2 km/h 9.7 km/h 45 % 0.0 mm
13:47 22.5 °C 9.6 °C 1024.9 hPa NE 4.8 km/h 12.9 km/h 44 % 0.0 mm
13:52 22.5 °C 9.6 °C 1024.9 hPa SE 1.6 km/h 12.9 km/h 44 % 0.0 mm
14:02 22.6 °C 10.1 °C 1024.6 hPa Calm   12.9 km/h 45 % 0.0 mm
14:07 22.7 °C 10.5 °C 1024.9 hPa East 4.8 km/h 8.0 km/h 46 % 0.0 mm
14:12 22.4 °C 9.9 °C 1024.9 hPa NE 6.4 km/h 8.0 km/h 45 % 0.0 mm
14:17 22.4 °C 10.2 °C 1024.6 hPa South 3.2 km/h 14.5 km/h 46 % 0.0 mm
14:22 22.6 °C 10.4 °C 1024.6 hPa SE 1.6 km/h 14.5 km/h 46 % 0.0 mm
14:27 23.1 °C 10.2 °C 1024.6 hPa North 1.6 km/h 8.0 km/h 44 % 0.0 mm
14:32 23.4 °C 10.1 °C 1024.3 hPa South 6.4 km/h 8.0 km/h 43 % 0.0 mm
14:37 23.3 °C 10.0 °C 1024.6 hPa Calm   6.4 km/h 43 % 0.0 mm
14:42 23.2 °C 9.6 °C 1024.3 hPa ESE 11.3 km/h 11.3 km/h 42 % 0.0 mm
14:47 23.1 °C 9.5 °C 1024.3 hPa ENE 3.2 km/h 12.9 km/h 42 % 0.0 mm
14:52 23.0 °C 9.7 °C 1024.3 hPa East 1.6 km/h 12.9 km/h 43 % 0.0 mm
14:57 23.1 °C 9.5 °C 1024.3 hPa Calm   12.9 km/h 42 % 0.0 mm
15:02 23.3 °C 10.0 °C 1024.3 hPa NE 6.4 km/h 12.9 km/h 43 % 0.0 mm
15:07 23.2 °C 9.2 °C 1024.3 hPa East 8.0 km/h 17.7 km/h 41 % 0.0 mm
15:12 23.1 °C 9.1 °C 1024.3 hPa Calm   17.7 km/h 41 % 0.0 mm
15:17 23.2 °C 9.2 °C 1024.3 hPa NE 6.4 km/h 17.7 km/h 41 % 0.0 mm
15:22 23.4 °C 9.4 °C 1024.3 hPa Calm   17.7 km/h 41 % 0.0 mm
15:32 23.4 °C 9.0 °C 1024.3 hPa SSE 1.6 km/h 9.7 km/h 40 % 0.0 mm
15:37 23.5 °C 9.5 °C 1024.3 hPa North 4.8 km/h 9.7 km/h 41 % 0.0 mm
15:42 23.4 °C 9.0 °C 1024.3 hPa East 4.8 km/h 9.7 km/h 40 % 0.0 mm
15:47 23.7 °C 9.3 °C 1024.3 hPa ENE 4.8 km/h 11.3 km/h 40 % 0.0 mm
15:52 23.4 °C 9.8 °C 1023.9 hPa NE 3.2 km/h 11.3 km/h 42 % 0.0 mm
15:57 23.5 °C 9.1 °C 1023.9 hPa NW 6.4 km/h 12.9 km/h 40 % 0.0 mm
16:02 23.6 °C 9.6 °C 1023.9 hPa Calm   12.9 km/h 41 % 0.0 mm
16:07 23.7 °C 9.3 °C 1023.9 hPa ENE 3.2 km/h 12.9 km/h 40 % 0.0 mm
16:17 23.6 °C 9.6 °C 1023.9 hPa ESE 1.6 km/h 9.7 km/h 41 % 0.0 mm
16:22 24.1 °C 9.7 °C 1023.9 hPa SSE 3.2 km/h 9.7 km/h 40 % 0.0 mm
16:27 24.0 °C 9.2 °C 1023.9 hPa ENE 3.2 km/h 6.4 km/h 39 % 0.0 mm
16:32 23.8 °C 9.4 °C 1023.9 hPa ENE 8.0 km/h 8.0 km/h 40 % 0.0 mm
16:37 23.6 °C 9.6 °C 1023.9 hPa Calm   11.3 km/h 41 % 0.0 mm
16:42 24.0 °C 9.6 °C 1023.9 hPa NE 6.4 km/h 11.3 km/h 40 % 0.0 mm
16:47 23.9 °C 9.1 °C 1023.9 hPa ENE 1.6 km/h 11.3 km/h 39 % 0.0 mm
16:52 23.8 °C 9.4 °C 1023.9 hPa East 3.2 km/h 11.3 km/h 40 % 0.0 mm
17:02 23.7 °C 9.3 °C 1023.9 hPa NE 3.2 km/h 11.3 km/h 40 % 0.0 mm
17:07 23.8 °C 9.4 °C 1023.9 hPa Calm   11.3 km/h 40 % 0.0 mm
17:12 23.8 °C 9.4 °C 1023.9 hPa NNE 3.2 km/h 11.3 km/h 40 % 0.0 mm
17:17 23.9 °C 9.1 °C 1023.9 hPa Calm   8.0 km/h 39 % 0.0 mm
17:22 24.3 °C 9.1 °C 1023.9 hPa Calm   8.0 km/h 38 % 0.0 mm
17:27 24.7 °C 9.0 °C 1023.9 hPa Calm   3.2 km/h 37 % 0.0 mm
17:32 24.6 °C 9.3 °C 1023.9 hPa SW 1.6 km/h 3.2 km/h 38 % 0.0 mm
17:37 24.4 °C 9.5 °C 1023.9 hPa East 6.4 km/h 9.7 km/h 39 % 0.0 mm
17:42 24.2 °C 9.4 °C 1023.9 hPa ENE 3.2 km/h 9.7 km/h 39 % 0.0 mm
17:52 24.0 °C 9.6 °C 1023.9 hPa East 6.4 km/h 9.7 km/h 40 % 0.0 mm
17:57 23.8 °C 9.4 °C 1024.3 hPa NE 9.7 km/h 12.9 km/h 40 % 0.0 mm
18:02 23.7 °C 9.7 °C 1023.9 hPa NE 11.3 km/h 12.9 km/h 41 % 0.0 mm
18:07 23.6 °C 9.6 °C 1023.9 hPa ENE 8.0 km/h 14.5 km/h 41 % 0.0 mm
18:12 23.5 °C 9.5 °C 1024.3 hPa ENE 6.4 km/h 14.5 km/h 41 % 0.0 mm
18:17 23.2 °C 9.2 °C 1024.3 hPa ENE 9.7 km/h 14.5 km/h 41 % 0.0 mm
18:22 23.1 °C 9.5 °C 1024.3 hPa East 9.7 km/h 19.3 km/h 42 % 0.0 mm
18:27 23.1 °C 9.5 °C 1024.3 hPa ENE 6.4 km/h 19.3 km/h 42 % 0.0 mm
18:32 23.1 °C 9.5 °C 1024.3 hPa East 6.4 km/h 16.1 km/h 42 % 0.0 mm
18:37 23.0 °C 9.4 °C 1023.9 hPa East 6.4 km/h 16.1 km/h 42 % 0.0 mm
18:42 22.9 °C 9.7 °C 1023.9 hPa ENE 3.2 km/h 9.7 km/h 43 % 0.0 mm
18:47 22.8 °C 9.2 °C 1024.3 hPa ENE 6.4 km/h 8.0 km/h 42 % 0.0 mm
18:52 22.7 °C 9.5 °C 1024.3 hPa East 8.0 km/h 8.0 km/h 43 % 0.0 mm
18:57 22.6 °C 9.4 °C 1024.3 hPa East 1.6 km/h 8.0 km/h 43 % 0.0 mm
19:02 22.5 °C 9.6 °C 1024.3 hPa East 4.8 km/h 8.0 km/h 44 % 0.0 mm
19:12 22.2 °C 9.7 °C 1023.9 hPa ENE 3.2 km/h 8.0 km/h 45 % 0.0 mm
19:17 21.9 °C 9.8 °C 1023.9 hPa East 3.2 km/h 9.7 km/h 46 % 0.0 mm
19:27 21.6 °C 9.8 °C 1024.3 hPa ENE 1.6 km/h 9.7 km/h 47 % 0.0 mm
19:32 21.3 °C 9.5 °C 1024.3 hPa East 3.2 km/h 9.7 km/h 47 % 0.0 mm
19:37 21.0 °C 9.6 °C 1023.9 hPa East 1.6 km/h 8.0 km/h 48 % 0.0 mm
19:42 20.8 °C 9.7 °C 1023.9 hPa East 1.6 km/h 8.0 km/h 49 % 0.0 mm
19:47 20.6 °C 9.5 °C 1023.9 hPa East 3.2 km/h 6.4 km/h 49 % 0.0 mm
19:52 20.4 °C 9.3 °C 1023.9 hPa East 1.6 km/h 6.4 km/h 49 % 0.0 mm
19:57 20.2 °C 9.4 °C 1023.9 hPa East 1.6 km/h 6.4 km/h 50 % 0.0 mm
20:02 19.9 °C 9.2 °C 1024.3 hPa ENE 3.2 km/h 6.4 km/h 50 % 0.0 mm
20:12 19.6 °C 9.5 °C 1024.3 hPa ENE 1.6 km/h 6.4 km/h 52 % 0.0 mm
20:17 19.4 °C 9.6 °C 1024.3 hPa ENE 3.2 km/h 8.0 km/h 53 % 0.0 mm
20:22 19.3 °C 9.5 °C 1024.3 hPa ENE 4.8 km/h 8.0 km/h 53 % 0.0 mm
20:27 19.1 °C 9.6 °C 1024.3 hPa NE 3.2 km/h 6.4 km/h 54 % 0.0 mm
20:32 18.9 °C 9.4 °C 1024.3 hPa ENE 1.6 km/h 6.4 km/h 54 % 0.0 mm
20:37 18.7 °C 9.7 °C 1024.3 hPa NE 1.6 km/h 6.4 km/h 56 % 0.0 mm
20:42 18.4 °C 9.7 °C 1024.3 hPa ENE 4.8 km/h 6.4 km/h 57 % 0.0 mm
20:47 18.4 °C 9.5 °C 1024.3 hPa ENE 3.2 km/h 8.0 km/h 56 % 0.0 mm
20:52 18.3 °C 9.4 °C 1024.3 hPa ENE 4.8 km/h 8.0 km/h 56 % 0.0 mm
20:57 18.3 °C 9.4 °C 1024.3 hPa ENE 4.8 km/h 9.7 km/h 56 % 0.0 mm
21:02 18.2 °C 9.5 °C 1024.3 hPa ENE 3.2 km/h 9.7 km/h 57 % 0.0 mm
21:12 17.9 °C 9.8 °C 1024.3 hPa ENE 6.4 km/h 9.7 km/h 59 % 0.0 mm
21:17 17.7 °C 9.6 °C 1024.3 hPa ENE 1.6 km/h 8.0 km/h 59 % 0.0 mm
21:27 17.4 °C 9.6 °C 1024.3 hPa Calm   8.0 km/h 60 % 0.0 mm
21:32 16.9 °C 9.6 °C 1024.3 hPa Calm   8.0 km/h 62 % 0.0 mm
21:42 16.3 °C 9.7 °C 1024.3 hPa Calm   3.2 km/h 65 % 0.0 mm
21:52 16.3 °C 9.7 °C 1024.3 hPa Calm   1.6 km/h 65 % 0.0 mm
21:57 16.2 °C 9.6 °C 1024.3 hPa Calm     65 % 0.0 mm
22:02 16.2 °C 9.4 °C 1024.3 hPa WNW 3.2 km/h   64 % 0.0 mm
22:07 16.1 °C 9.5 °C 1024.3 hPa Calm   3.2 km/h 65 % 0.0 mm
22:17 16.2 °C 9.8 °C 1024.3 hPa Calm   3.2 km/h 66 % 0.0 mm
22:22 16.6 °C 9.8 °C 1024.3 hPa Calm   3.2 km/h 64 % 0.0 mm
22:32 16.4 °C 9.6 °C 1024.3 hPa Calm   1.6 km/h 64 % 0.0 mm
22:37 15.9 °C 9.6 °C 1024.3 hPa WNW 1.6 km/h 1.6 km/h 66 % 0.0 mm
22:42 15.6 °C 9.5 °C 1024.3 hPa WNW 3.2 km/h 3.2 km/h 67 % 0.0 mm
22:47 15.4 °C 9.7 °C 1024.3 hPa Calm   3.2 km/h 69 % 0.0 mm
22:52 15.3 °C 9.6 °C 1024.3 hPa Calm   3.2 km/h 69 % 0.0 mm
22:57 15.3 °C 9.6 °C 1024.3 hPa North 1.6 km/h 3.2 km/h 69 % 0.0 mm
23:02 15.2 °C 9.5 °C 1024.3 hPa NNW 1.6 km/h 3.2 km/h 69 % 0.0 mm
23:07 14.9 °C 9.5 °C 1024.3 hPa NW 1.6 km/h 3.2 km/h 70 % 0.0 mm
23:12 14.6 °C 9.6 °C 1024.3 hPa WNW 1.6 km/h 3.2 km/h 72 % 0.0 mm
23:17 14.3 °C 9.7 °C 1024.3 hPa WNW 1.6 km/h 3.2 km/h 74 % 0.0 mm
23:22 14.3 °C 9.7 °C 1024.3 hPa Calm   3.2 km/h 74 % 0.0 mm
23:27 14.6 °C 9.6 °C 1024.3 hPa NNW 1.6 km/h 3.2 km/h 72 % 0.0 mm
23:32 14.6 °C 9.4 °C 1024.6 hPa Calm   3.2 km/h 71 % 0.0 mm
23:37 14.5 °C 9.5 °C 1024.6 hPa NW 1.6 km/h 4.8 km/h 72 % 0.0 mm
23:42 14.4 °C 9.4 °C 1024.6 hPa NNW 1.6 km/h 4.8 km/h 72 % 0.0 mm
23:47 14.4 °C 9.4 °C 1024.6 hPa NNW 1.6 km/h 3.2 km/h 72 % 0.0 mm
23:52 14.4 °C 9.4 °C 1024.6 hPa Calm   3.2 km/h 72 % 0.0 mm
23:57 14.6 °C 9.6 °C 1024.6 hPa North 1.6 km/h 3.2 km/h 72 % 0.0 mm
Meteo18
Compliments of Weather Underground - 4 mb

Script developed by  Jim McMurry - jmcmurry@mwt.net Adapted for the template by  Wim van der Kuil - Leuven-Template.eu

You find our weather info also at:

European Weather Network

Weather Underground

Equipment we use:

Weather-station
Davis Vue

Weather-program
Meteohub

Weather-server
Raspberry PI 2 B+

Provider
1 and 1

Davis Vue

Meteohub

Raspberry PI 2 B+

1 and 1